Rybinsk, Russia
Current Conditions -  °F | °C
As of 4:30 PM on Thursday 23 Oct 2014 (Local Time) from UUDL Reporting Station
Scattered Clouds Scattered Clouds  
Wind Chill: 13°   Ceiling: Unl
Heat Index: 23°   Visibility: 6mi
Dew Point: 16°   Wind: 9mph
Humidity: 74%   Direction: 290°WNW
Pressure: 30.21"   Gusts: NA
Location:  58.05°N, 38.83°E
Report Text: UUDL 231330Z 29004MPS 9999 SCT028 M05/M09 Q1023 NOSIG RMKQFE759 23850340
Loading
Personal Weather Stations






























Interactive Weather Map
Tropical Storm Tracking
New forecast layout! Learn more

10-Day Weather Forecast

Advertisements
Track Severe Weather on mobile